Terminal Aerodrome Forecast
Issued by NWS

Home | Current Version | Previous Version | Graphics & Text | Print | Product List | Glossary On
Versions: 1 2 3 4 5 6 7 8 9 10 11 12 13 14
000
FTUS43 KICT 231138 AAA
TAFCNU
TAF AMD
KCNU 231138Z 2312/2412 VRB03KT P6SM SKC
      TEMPO 2312/2315 5SM BR
     FM231800 24008KT P6SM SKC
     FM240900 32008KT P6SM SCT100=

USA.gov is the U.S. government's official web portal to all federal, state and local government web resources and services.